Time;durP1;ratioP1;P1;durP2;ratioP2;P2;SDS_P1;SDS_P2;PMS_P1;PMS_P2;Temp;Humidity;BMP_temperature;BMP_pressure;BME280_temperature;BME280_humidity;BME280_pressure;Samples;Min_cycle;Max_cycle;Signal;HPM_P1;HPM_P2
2022/07/19 00:02:25;;;;;;;;;;;;;;;22.90;43.51;101564.38;7403813;19;1720;-47
2022/07/19 00:04:55;;;;;;;;;;;;;;;22.82;43.87;101551.63;7406233;19;1725;-47
2022/07/19 00:07:24;;;;;;;;;;;;;;;22.87;43.94;101554.72;7406041;19;1591;-47
2022/07/19 00:09:53;;;;;;;;;;;;;;;22.72;43.78;101553.44;7405199;19;1847;-47
2022/07/19 00:12:21;;;;;;;;;;;;;;;22.70;43.88;101537.41;7406287;19;1771;-47
2022/07/19 00:14:51;;;;;;;;;;;;;;;22.72;43.76;101556.13;7405388;19;1724;-48
2022/07/19 00:17:26;;;;;;;;;;;;;;;22.68;43.98;101558.28;7404443;19;1526;-47
2022/07/19 00:20:00;;;;;;;;;;;;;;;22.84;44.00;101544.22;7405138;19;1696;-47
2022/07/19 00:22:30;;;;;;;;;;;;;;;22.73;43.87;101563.25;7404116;19;1563;-47
2022/07/19 00:24:59;;;;;;;;;;;;;;;22.82;44.06;101554.31;7405922;19;1627;-47
2022/07/19 00:27:27;;;;;;;;;;;;;;;22.83;43.86;101548.75;7404800;19;1815;-47
2022/07/19 00:30:04;;;;;;;;;;;;;;;22.79;43.85;101547.34;7403033;19;1859;-47
2022/07/19 00:32:35;;;;;;;;;;;;;;;22.86;43.77;101552.16;7404861;19;1900;-47
2022/07/19 00:35:04;;;;;;;;;;;;;;;22.79;43.82;101549.19;7403876;19;1729;-47
2022/07/19 00:40:26;;;;;;;;;;;;;;;22.62;43.71;101540.81;7400470;19;1548;-48
2022/07/19 00:43:09;;;;;;;;;;;;;;;;;;;;;
2022/07/19 00:45:40;;;;;;;;;;;;;;;22.67;43.74;101547.63;7401339;19;1516;-47
2022/07/19 00:48:20;;;;;;;;;;;;;;;22.62;44.02;101538.13;7404497;19;1902;-47
2022/07/19 00:50:48;;;;;;;;;;;;;;;22.67;44.03;101550.31;7404429;19;1821;-48
2022/07/19 00:53:17;;;;;;;;;;;;;;;22.60;43.94;101537.41;7404914;19;2058;-47
2022/07/19 00:55:47;;;;;;;;;;;;;;;22.62;44.06;101546.22;7402289;19;1849;-48
2022/07/19 00:58:20;;;;;;;;;;;;;;;22.59;43.99;101548.31;7402830;19;1536;-47
2022/07/19 01:00:49;;;;;;;;;;;;;;;22.58;44.06;101535.81;7403390;19;1583;-47
2022/07/19 01:03:23;;;;;;;;;;;;;;;22.60;43.90;101544.63;7400716;19;1963;-47
2022/07/19 01:05:51;;;;;;;;;;;;;;;22.65;44.12;101545.06;7402947;19;1807;-47
2022/07/19 01:08:26;;;;;;;;;;;;;;;22.61;44.07;101544.47;7404070;19;1853;-47
2022/07/19 01:11:11;;;;;;;;;;;;;;;22.59;43.69;101541.06;7404130;19;1446;-46
2022/07/19 01:16:26;;;;;;;;;;;;;;;22.60;43.81;101552.72;7401463;19;1988;-47
2022/07/19 01:19:01;;;;;;;;;;;;;;;22.50;43.73;101547.34;7403725;19;1815;-47
2022/07/19 01:21:32;;;;;;;;;;;;;;;22.57;43.74;101551.16;7402298;19;1587;-48
2022/07/19 01:24:00;;;;;;;;;;;;;;;22.64;43.71;101548.72;7403913;19;1928;-47
2022/07/19 01:26:38;;;;;;;;;;;;;;;22.48;43.85;101546.59;7401751;19;1606;-47
2022/07/19 01:29:07;;;;;;;;;;;;;;;22.42;43.92;101549.84;7401044;19;1862;-47
2022/07/19 01:31:35;;;;;;;;;;;;;;;22.39;44.18;101560.91;7401542;19;1810;-48
2022/07/19 01:34:03;;;;;;;;;;;;;;;22.37;44.04;101530.56;7403723;19;1822;-47
2022/07/19 01:36:46;;;;;;;;;;;;;;;22.47;43.87;101539.50;7403169;19;1542;-47
2022/07/19 01:39:17;;;;;;;;;;;;;;;22.54;43.99;101537.97;7403602;19;1899;-47
2022/07/19 01:42:02;;;;;;;;;;;;;;;22.58;43.87;101544.78;7402494;19;1722;-47
2022/07/19 01:44:33;;;;;;;;;;;;;;;22.66;43.95;101556.69;7403457;19;1565;-47
2022/07/19 01:47:04;;;;;;;;;;;;;;;22.54;44.02;101535.28;7401401;19;1474;-47
2022/07/19 01:49:39;;;;;;;;;;;;;;;22.62;43.86;101534.53;7399919;19;1855;-47
2022/07/19 01:52:14;;;;;;;;;;;;;;;22.61;43.87;101538.25;7402431;19;1767;-47
2022/07/19 01:54:47;;;;;;;;;;;;;;;22.61;43.71;101547.19;7402898;19;1828;-48
2022/07/19 01:57:25;;;;;;;;;;;;;;;22.31;44.31;101547.28;7401593;19;1772;-47
2022/07/19 01:59:58;;;;;;;;;;;;;;;22.44;44.14;101556.81;7402658;19;1475;-47
2022/07/19 02:02:26;;;;;;;;;;;;;;;22.50;43.97;101554.53;7392474;19;3504;-57
2022/07/19 02:04:54;;;;;;;;;;;;;;;22.38;44.35;101554.69;7403599;19;1351;-56
2022/07/19 02:07:23;;;;;;;;;;;;;;;22.46;44.43;101555.81;7404970;19;1621;-56
2022/07/19 02:09:54;;;;;;;;;;;;;;;22.52;43.93;101548.03;7404859;19;1855;-57
2022/07/19 02:12:22;;;;;;;;;;;;;;;22.48;44.21;101556.53;7404400;19;1675;-57
2022/07/19 02:14:50;;;;;;;;;;;;;;;22.42;44.15;101549.84;7399719;19;1762;-56
2022/07/19 02:17:19;;;;;;;;;;;;;;;22.41;44.34;101556.25;7402932;19;1639;-59
2022/07/19 02:19:47;;;;;;;;;;;;;;;22.48;44.18;101548.44;7404231;19;1520;-59
2022/07/19 02:22:15;;;;;;;;;;;;;;;22.52;43.93;101550.75;7404978;19;1567;-59
2022/07/19 02:24:44;;;;;;;;;;;;;;;22.48;44.12;101543.91;7405643;19;1347;-56
2022/07/19 02:27:15;;;;;;;;;;;;;;;22.44;44.15;101559.53;7404868;19;1370;-57
2022/07/19 02:29:43;;;;;;;;;;;;;;;22.49;44.12;101540.22;7403533;19;1857;-57
2022/07/19 02:32:12;;;;;;;;;;;;;;;22.41;44.42;101553.53;7404418;19;1321;-57
2022/07/19 02:34:40;;;;;;;;;;;;;;;22.43;44.00;101551.56;7404058;19;1572;-57
2022/07/19 02:37:09;;;;;;;;;;;;;;;22.41;43.96;101543.59;7404055;19;1539;-60
2022/07/19 02:39:37;;;;;;;;;;;;;;;22.41;44.18;101537.38;7404530;19;1523;-55
2022/07/19 02:42:05;;;;;;;;;;;;;;;22.46;44.08;101574.69;7401876;19;1498;-56
2022/07/19 02:44:36;;;;;;;;;;;;;;;22.42;44.32;101569.59;7404347;19;1543;-56
2022/07/19 02:47:05;;;;;;;;;;;;;;;22.34;44.41;101555.09;7403786;19;1414;-57
2022/07/19 02:49:33;;;;;;;;;;;;;;;22.33;44.34;101545.31;7402404;19;1853;-57
2022/07/19 02:52:01;;;;;;;;;;;;;;;22.13;44.08;101520.97;7402719;19;1355;-57
2022/07/19 02:54:30;;;;;;;;;;;;;;;22.36;44.18;101551.28;7403673;19;1258;-59
2022/07/19 02:56:58;;;;;;;;;;;;;;;22.37;44.13;101557.50;7399815;19;1101;-57
2022/07/19 02:59:27;;;;;;;;;;;;;;;22.27;44.51;101556.63;7402282;19;1671;-57
2022/07/19 03:01:58;;;;;;;;;;;;;;;22.23;44.63;101551.47;7401495;19;1628;-56
2022/07/19 03:04:26;;;;;;;;;;;;;;;22.28;44.19;101536.78;7403427;19;1418;-57
2022/07/19 03:06:54;;;;;;;;;;;;;;;22.37;44.37;101568.28;7404053;19;1587;-59
2022/07/19 03:09:23;;;;;;;;;;;;;;;22.29;44.52;101574.38;7403146;19;1859;-56
2022/07/19 03:11:51;;;;;;;;;;;;;;;22.35;44.23;101564.88;7401005;19;1340;-59
2022/07/19 03:14:19;;;;;;;;;;;;;;;22.26;44.47;101571.94;7401259;19;1553;-60
2022/07/19 03:16:48;;;;;;;;;;;;;;;22.31;44.57;101569.69;7400594;19;1195;-57
2022/07/19 03:19:19;;;;;;;;;;;;;;;22.20;44.69;101578.72;7403272;19;1343;-59
2022/07/19 03:21:47;;;;;;;;;;;;;;;22.30;44.52;101572.50;7403456;19;1647;-57
2022/07/19 03:24:15;;;;;;;;;;;;;;;22.10;44.94;101577.81;7403410;19;1377;-57
2022/07/19 03:26:44;;;;;;;;;;;;;;;22.04;45.11;101573.84;7404804;19;1769;-60
2022/07/19 03:29:12;;;;;;;;;;;;;;;22.07;44.89;101574.56;7407908;19;1861;-58
2022/07/19 03:31:40;;;;;;;;;;;;;;;22.19;44.68;101566.22;7408787;19;1255;-56
2022/07/19 03:34:09;;;;;;;;;;;;;;;22.26;44.55;101571.94;7410039;19;1358;-57
2022/07/19 03:36:40;;;;;;;;;;;;;;;22.22;44.79;101581.25;7409101;19;1401;-57
2022/07/19 03:39:08;;;;;;;;;;;;;;;22.17;44.83;101584.38;7409713;19;1441;-60
2022/07/19 03:41:36;;;;;;;;;;;;;;;22.23;44.82;101585.66;7409217;19;1203;-64
2022/07/19 03:44:05;;;;;;;;;;;;;;;22.26;44.54;101582.72;7408657;19;1345;-57
2022/07/19 03:46:33;;;;;;;;;;;;;;;22.36;44.85;101577.34;7406526;19;1333;-59
2022/07/19 03:49:02;;;;;;;;;;;;;;;22.35;44.80;101592.69;7406479;19;1860;-57
2022/07/19 03:51:30;;;;;;;;;;;;;;;22.31;44.84;101582.31;7407859;19;1341;-57
2022/07/19 03:54:01;;;;;;;;;;;;;;;22.30;44.98;101578.75;7409406;19;1084;-62
2022/07/19 03:56:30;;;;;;;;;;;;;;;22.21;44.88;101593.03;7407576;19;1370;-57
2022/07/19 03:58:58;;;;;;;;;;;;;;;22.24;45.15;101607.13;7406410;19;1408;-60
2022/07/19 04:01:26;;;;;;;;;;;;;;;22.31;44.88;101610.09;7404866;19;1422;-61
2022/07/19 04:03:55;;;;;;;;;;;;;;;22.23;44.98;101589.19;7406253;19;1433;-58
2022/07/19 04:06:23;;;;;;;;;;;;;;;22.39;44.78;101599.50;7404087;19;1381;-58
2022/07/19 04:08:51;;;;;;;;;;;;;;;22.36;44.78;101601.59;7401302;19;1652;-60
2022/07/19 04:11:23;;;;;;;;;;;;;;;22.38;44.87;101607.72;7399772;19;1845;-56
2022/07/19 04:13:51;;;;;;;;;;;;;;;22.38;45.02;101607.72;7402417;19;1255;-57
2022/07/19 04:16:19;;;;;;;;;;;;;;;22.38;44.91;101607.72;7402124;19;1306;-59
2022/07/19 04:18:48;;;;;;;;;;;;;;;22.46;44.67;101620.50;7406914;19;1087;-58
2022/07/19 04:21:16;;;;;;;;;;;;;;;22.49;45.13;101614.84;7406702;19;1330;-58
2022/07/19 04:23:44;;;;;;;;;;;;;;;22.56;45.18;101603.38;7403305;19;1289;-55
2022/07/19 04:26:13;;;;;;;;;;;;;;;22.75;45.09;101610.63;7404673;19;1335;-57
2022/07/19 04:28:44;;;;;;;;;;;;;;;22.70;45.01;101602.13;7404911;19;1371;-56
2022/07/19 04:31:14;;;;;;;;;;;;;;;22.67;45.32;101628.50;7405326;19;1848;-59
2022/07/19 04:33:42;;;;;;;;;;;;;;;22.75;45.02;101617.88;7408131;19;1390;-55
2022/07/19 04:36:11;;;;;;;;;;;;;;;22.72;45.95;101601.97;7406549;19;1190;-59
2022/07/19 04:38:39;;;;;;;;;;;;;;;22.62;46.85;101621.69;7405711;19;1367;-57
2022/07/19 04:41:08;;;;;;;;;;;;;;;22.73;46.10;101599.13;7403008;19;1314;-59
2022/07/19 04:43:36;;;;;;;;;;;;;;;22.88;45.78;101604.09;7400737;19;1228;-55
2022/07/19 04:46:07;;;;;;;;;;;;;;;23.08;46.86;101599.59;7403846;19;1390;-55
2022/07/19 04:48:35;;;;;;;;;;;;;;;23.09;46.89;101591.38;7406233;19;1383;-60
2022/07/19 04:51:04;;;;;;;;;;;;;;;23.18;47.52;101598.63;7401630;19;1851;-55
2022/07/19 04:53:32;;;;;;;;;;;;;;;23.20;48.06;101604.72;7401082;19;1454;-60
2022/07/19 04:56:01;;;;;;;;;;;;;;;23.30;47.89;101609.25;7405480;19;1365;-60
2022/07/19 04:58:29;;;;;;;;;;;;;;;23.33;47.72;101609.81;7401265;19;1263;-60
2022/07/19 05:00:57;;;;;;;;;;;;;;;23.38;47.87;101612.94;7400010;19;1645;-55
2022/07/19 05:03:28;;;;;;;;;;;;;;;23.44;47.94;101611.53;7405792;19;1435;-55
2022/07/19 05:05:57;;;;;;;;;;;;;;;23.47;48.20;101616.63;7402516;19;1400;-60
2022/07/19 05:08:25;;;;;;;;;;;;;;;23.54;48.25;101622.31;7405886;19;1254;-59
2022/07/19 05:10:53;;;;;;;;;;;;;;;23.52;48.06;101608.09;7405635;19;1858;-60
2022/07/19 05:13:22;;;;;;;;;;;;;;;23.54;48.19;101606.13;7405903;19;1342;-55
2022/07/19 05:15:50;;;;;;;;;;;;;;;23.56;48.35;101598.72;7406575;19;1756;-60
2022/07/19 05:18:19;;;;;;;;;;;;;;;23.58;48.48;101618.31;7404955;19;1869;-55
2022/07/19 05:20:49;;;;;;;;;;;;;;;23.58;48.79;101602.97;7404213;19;1391;-55
2022/07/19 05:23:18;;;;;;;;;;;;;;;23.59;48.93;101603.81;7405868;19;1607;-60
2022/07/19 05:25:46;;;;;;;;;;;;;;;23.63;49.17;101607.91;7406052;19;1607;-55
2022/07/19 05:28:14;;;;;;;;;;;;;;;23.62;49.22;101603.53;7407069;19;1446;-60
2022/07/19 05:30:44;;;;;;;;;;;;;;;23.56;49.84;101582.53;7403044;19;1865;-60
2022/07/19 05:33:12;;;;;;;;;;;;;;;23.60;49.86;101589.31;7404366;19;1346;-55
2022/07/19 05:35:40;;;;;;;;;;;;;;;23.65;49.99;101603.22;7406524;19;1377;-60
2022/07/19 05:38:11;;;;;;;;;;;;;;;23.62;50.33;101592.72;7404775;19;1242;-55
2022/07/19 05:40:40;;;;;;;;;;;;;;;23.62;50.22;101592.72;7405801;19;1314;-55
2022/07/19 05:43:08;;;;;;;;;;;;;;;23.61;50.44;101601.81;7406237;19;1372;-60
2022/07/19 05:45:36;;;;;;;;;;;;;;;23.63;50.51;101591.72;7404423;19;1534;-60
2022/07/19 05:48:05;;;;;;;;;;;;;;;23.62;50.64;101598.97;7405209;19;1475;-60
2022/07/19 05:50:34;;;;;;;;;;;;;;;23.58;50.68;101586.75;7404331;19;1857;-60
2022/07/19 05:53:02;;;;;;;;;;;;;;;23.61;50.59;101593.72;7405318;19;1640;-55
2022/07/19 05:55:33;;;;;;;;;;;;;;;23.65;50.53;101592.41;7403550;19;1447;-55
2022/07/19 05:58:01;;;;;;;;;;;;;;;23.60;50.58;101581.22;7403912;19;1383;-60
2022/07/19 06:00:30;;;;;;;;;;;;;;;23.62;50.66;101590.03;7405342;19;1446;-55
2022/07/19 06:02:58;;;;;;;;;;;;;;;23.62;50.85;101588.19;7404211;19;1401;-56
2022/07/19 06:05:26;;;;;;;;;;;;;;;23.64;51.09;101590.72;7405054;19;1759;-55
2022/07/19 06:07:55;;;;;;;;;;;;;;;23.63;50.85;101573.69;7403683;19;1480;-60
2022/07/19 06:10:23;;;;;;;;;;;;;;;23.70;50.64;101606.34;7404335;19;1849;-60
2022/07/19 06:12:54;;;;;;;;;;;;;;;23.61;50.76;101569.41;7403882;19;1357;-54
2022/07/19 06:15:22;;;;;;;;;;;;;;;23.66;50.96;101580.63;7405466;19;1384;-55
2022/07/19 06:17:50;;;;;;;;;;;;;;;23.66;51.07;101577.09;7404721;19;1364;-60
2022/07/19 06:20:19;;;;;;;;;;;;;;;23.76;50.81;101610.31;7403239;19;1400;-56
2022/07/19 06:22:47;;;;;;;;;;;;;;;23.66;50.75;101569.84;7404512;19;1342;-54
2022/07/19 06:25:15;;;;;;;;;;;;;;;23.71;50.70;101575.63;7404367;19;1404;-60
2022/07/19 06:27:45;;;;;;;;;;;;;;;23.66;50.81;101574.41;7405194;19;1383;-60
2022/07/19 06:30:16;;;;;;;;;;;;;;;23.68;50.68;101573.25;7402774;19;1844;-55
2022/07/19 06:32:45;;;;;;;;;;;;;;;23.70;50.57;101565.84;7403403;19;1537;-60
2022/07/19 06:35:13;;;;;;;;;;;;;;;23.71;50.88;101583.72;7403076;19;1540;-55
2022/07/19 06:37:41;;;;;;;;;;;;;;;23.70;50.64;101587.44;7403747;19;1442;-60
2022/07/19 06:40:10;;;;;;;;;;;;;;;23.71;50.57;101580.19;7404638;19;1316;-55
2022/07/19 06:42:39;;;;;;;;;;;;;;;23.70;50.46;101576.66;7404839;19;1100;-60
2022/07/19 06:45:08;;;;;;;;;;;;;;;23.73;50.39;101570.94;7403489;19;1706;-59
2022/07/19 06:47:39;;;;;;;;;;;;;;;23.71;50.55;101567.53;7403554;19;1681;-55
2022/07/19 06:50:08;;;;;;;;;;;;;;;23.79;50.65;101588.44;7402256;19;1853;-60
2022/07/19 06:52:36;;;;;;;;;;;;;;;23.76;50.40;101594.97;7402249;19;1361;-60
2022/07/19 06:55:05;;;;;;;;;;;;;;;23.75;50.62;101582.44;7404107;19;1560;-60
2022/07/19 06:57:33;;;;;;;;;;;;;;;23.74;50.48;101580.75;7404447;19;1541;-54
2022/07/19 07:00:01;;;;;;;;;;;;;;;23.76;50.52;101573.34;7405835;19;1714;-60
2022/07/19 07:02:30;;;;;;;;;;;;;;;23.78;50.66;101587.59;7406955;19;1518;-55
2022/07/19 07:05:01;;;;;;;;;;;;;;;23.76;50.66;101583.31;7410765;19;1693;-60
2022/07/19 07:07:29;;;;;;;;;;;;;;;23.77;50.76;101585.00;7410799;19;1436;-60
2022/07/19 07:09:57;;;;;;;;;;;;;;;23.77;50.62;101580.47;7408310;19;1330;-59
2022/07/19 07:12:26;;;;;;;;;;;;;;;23.76;50.73;101577.91;7411146;19;1504;-59
2022/07/19 07:14:54;;;;;;;;;;;;;;;23.80;50.86;101582.91;7410254;19;1758;-59
2022/07/19 07:17:22;;;;;;;;;;;;;;;23.79;50.68;101589.28;7410934;19;1351;-56
2022/07/19 07:19:51;;;;;;;;;;;;;;;23.76;50.94;101573.34;7410353;19;1634;-59
2022/07/19 07:22:22;;;;;;;;;;;;;;;23.78;50.81;101581.34;7410337;19;1553;-55
2022/07/19 07:24:50;;;;;;;;;;;;;;;23.80;50.81;101584.75;7411291;19;1595;-56
2022/07/19 07:27:18;;;;;;;;;;;;;;;23.82;50.64;101588.16;7409655;19;1726;-55
2022/07/19 07:29:46;;;;;;;;;;;;;;;23.80;50.89;101588.28;7409959;19;1536;-56
2022/07/19 07:32:15;;;;;;;;;;;;;;;23.84;51.01;101590.72;7407753;19;1848;-56
2022/07/19 07:34:43;;;;;;;;;;;;;;;23.83;51.01;101587.13;7410285;19;1622;-56
2022/07/19 07:37:12;;;;;;;;;;;;;;;23.82;50.69;101589.00;7409888;19;1442;-56
2022/07/19 07:39:43;;;;;;;;;;;;;;;23.81;50.98;101590.00;7410687;19;1674;-55
2022/07/19 07:42:11;;;;;;;;;;;;;;;23.81;51.05;101590.00;7409155;19;1682;-54
2022/07/19 07:44:40;;;;;;;;;;;;;;;23.82;50.85;101580.06;7409252;19;1674;-56
2022/07/19 07:47:08;;;;;;;;;;;;;;;23.79;50.84;101583.88;7409568;19;1548;-55
2022/07/19 07:49:37;;;;;;;;;;;;;;;23.84;50.98;101582.63;7409675;19;1607;-60
2022/07/19 07:52:06;;;;;;;;;;;;;;;23.81;50.91;101575.63;7406717;19;1845;-60
2022/07/19 07:54:34;;;;;;;;;;;;;;;23.82;51.21;101577.34;7410610;19;1651;-59
2022/07/19 07:57:06;;;;;;;;;;;;;;;23.79;51.25;101575.78;7409534;19;1512;-54
2022/07/19 07:59:34;;;;;;;;;;;;;;;23.82;51.01;101582.75;7410847;19;1543;-60
2022/07/19 08:02:02;;;;;;;;;;;;;;;23.87;51.22;101590.41;7407194;19;1470;-55
2022/07/19 08:04:31;;;;;;;;;;;;;;;23.85;51.10;101581.59;7408848;19;1485;-56
2022/07/19 08:06:59;;;;;;;;;;;;;;;23.83;51.14;101573.63;7409253;19;1506;-55
2022/07/19 08:09:27;;;;;;;;;;;;;;;23.88;51.14;101575.91;7409472;19;1659;-60
2022/07/19 08:11:56;;;;;;;;;;;;;;;23.87;50.98;101591.25;7404914;19;1864;-55
2022/07/19 08:14:27;;;;;;;;;;;;;;;23.87;51.18;101579.59;7409416;19;1524;-59
2022/07/19 08:16:56;;;;;;;;;;;;;;;23.87;51.06;101590.41;7409281;19;1616;-60
2022/07/19 08:19:24;;;;;;;;;;;;;;;23.85;51.37;101581.59;7409207;19;1524;-56
2022/07/19 08:21:52;;;;;;;;;;;;;;;23.92;51.06;101591.66;7409228;19;1543;-54
2022/07/19 08:24:20;;;;;;;;;;;;;;;23.86;51.06;101581.44;7410222;19;939;-60
2022/07/19 08:26:49;;;;;;;;;;;;;;;23.88;51.21;101578.63;7408768;19;1650;-54
2022/07/19 08:29:17;;;;;;;;;;;;;;;23.87;51.41;101563.38;7408287;19;1634;-55
2022/07/19 08:31:48;;;;;;;;;;;;;;;23.88;51.20;101575.91;7407506;19;1815;-55
2022/07/19 08:34:16;;;;;;;;;;;;;;;23.87;51.23;101585.00;7408361;19;1431;-60
2022/07/19 08:36:45;;;;;;;;;;;;;;;23.86;51.20;101575.22;7406536;19;1547;-60
2022/07/19 08:39:13;;;;;;;;;;;;;;;23.85;51.04;101570.78;7409073;19;1571;-55
2022/07/19 08:41:41;;;;;;;;;;;;;;;23.84;51.55;101569.09;7408149;19;1635;-60
2022/07/19 08:44:10;;;;;;;;;;;;;;;23.88;51.27;101581.31;7407821;19;1602;-60
2022/07/19 08:46:38;;;;;;;;;;;;;;;23.84;51.20;101563.69;7406712;19;1896;-56
2022/07/19 08:49:09;;;;;;;;;;;;;;;23.86;51.52;101567.94;7407009;19;1289;-55
2022/07/19 08:51:38;;;;;;;;;;;;;;;23.85;51.53;101576.19;7406802;19;1849;-60
2022/07/19 08:54:06;;;;;;;;;;;;;;;23.84;51.55;101566.41;7406079;19;1319;-60
2022/07/19 08:59:15;;;;;;;;;;;;;;;23.84;51.53;101564.53;7405649;19;1456;-60
2022/07/19 09:01:44;;;;;;;;;;;;;;;23.83;51.60;101568.22;7405533;19;1441;-54
2022/07/19 09:04:16;;;;;;;;;;;;;;;23.86;51.68;101556.31;7404994;19;1310;-55
2022/07/19 09:06:46;;;;;;;;;;;;;;;23.86;51.54;101561.69;7406641;19;1253;-60
2022/07/19 09:09:15;;;;;;;;;;;;;;;23.87;51.36;101558.00;7407448;19;1298;-55
2022/07/19 09:11:48;;;;;;;;;;;;;;;23.91;51.85;101559.38;7405938;19;1851;-60
2022/07/19 09:14:17;;;;;;;;;;;;;;;23.89;51.63;101556.84;7406907;19;1377;-60
2022/07/19 09:17:06;;;;;;;;;;;;;;;23.93;51.70;101552.00;7407101;19;1772;-60
2022/07/19 09:19:38;;;;;;;;;;;;;;;23.90;51.82;101541.50;7405924;19;1946;-59
2022/07/19 09:22:08;;;;;;;;;;;;;;;23.90;51.46;101552.31;7407399;19;1337;-60
2022/07/19 09:24:37;;;;;;;;;;;;;;;23.89;51.68;101553.28;7407495;19;1120;-60
2022/07/19 09:27:07;;;;;;;;;;;;;;;23.89;51.57;101537.09;7405783;19;1693;-55
2022/07/19 09:29:36;;;;;;;;;;;;;;;23.91;51.80;101543.19;7406335;19;1360;-55
2022/07/19 09:32:09;;;;;;;;;;;;;;;23.87;51.83;101544.47;7405028;19;1854;-55
2022/07/19 09:34:42;;;;;;;;;;;;;;;23.87;51.61;101539.06;7405536;19;1330;-59
2022/07/19 09:37:14;;;;;;;;;;;;;;;23.87;51.92;101550.72;7405759;19;1630;-56
2022/07/19 09:39:45;;;;;;;;;;;;;;;23.93;51.85;101557.38;7405981;19;1555;-60
2022/07/19 09:42:14;;;;;;;;;;;;;;;23.86;52.01;101534.69;7405931;19;1446;-55
2022/07/19 09:44:42;;;;;;;;;;;;;;;23.88;51.73;101546.19;7405789;19;1538;-55
2022/07/19 09:47:10;;;;;;;;;;;;;;;23.90;51.90;101538.78;7405546;19;1880;-55
2022/07/19 09:49:41;;;;;;;;;;;;;;;23.87;52.17;101529.13;7404939;19;1438;-60
2022/07/19 09:52:10;;;;;;;;;;;;;;;23.89;52.05;101537.09;7403807;19;1845;-56
2022/07/19 09:54:40;;;;;;;;;;;;;;;23.88;51.99;101538.09;7406115;19;1534;-60
2022/07/19 09:57:10;;;;;;;;;;;;;;;23.84;51.90;101526.72;7405283;19;1610;-55
2022/07/19 09:59:40;;;;;;;;;;;;;;;23.87;52.12;101512.06;7406110;19;1631;-60
2022/07/19 10:02:09;;;;;;;;;;;;;;;23.90;52.06;101526.13;7402688;19;1556;-55
2022/07/19 10:04:37;;;;;;;;;;;;;;;23.89;52.12;101526.28;7405106;19;1548;-60
2022/07/19 10:07:08;;;;;;;;;;;;;;;23.90;51.89;101544.19;7405023;19;1128;-60
2022/07/19 10:09:37;;;;;;;;;;;;;;;24.00;51.93;101536.91;7405668;19;1678;-60
2022/07/19 10:12:06;;;;;;;;;;;;;;;23.92;52.34;101516.03;7401968;19;1853;-56
2022/07/19 10:14:35;;;;;;;;;;;;;;;23.92;52.18;101518.72;7403984;19;1387;-55
2022/07/19 10:17:07;;;;;;;;;;;;;;;23.92;52.23;101515.19;7403851;19;1377;-60
2022/07/19 10:19:37;;;;;;;;;;;;;;;23.90;52.10;101515.31;7403869;19;1320;-59
2022/07/19 10:22:06;;;;;;;;;;;;;;;23.93;51.90;101524.97;7405107;19;1163;-60
2022/07/19 10:24:50;;;;;;;;;;;;;;;23.91;52.16;101494.56;7404701;19;1400;-55
2022/07/19 10:27:20;;;;;;;;;;;;;;;23.92;52.22;101513.31;7404892;19;1363;-55
2022/07/19 10:29:49;;;;;;;;;;;;;;;23.94;52.16;101505.06;7403458;19;1331;-55
2022/07/19 10:32:17;;;;;;;;;;;;;;;23.94;52.33;101494.28;7402865;19;1884;-60
2022/07/19 10:34:48;;;;;;;;;;;;;;;23.92;52.28;101498.97;7403055;19;1618;-58
2022/07/19 10:37:37;;;;;;;;;;;;;;;23.94;52.49;101500.53;7403701;19;1760;-60
2022/07/19 10:40:08;;;;;;;;;;;;;;;23.93;52.20;101481.75;7404502;19;1587;-60
2022/07/19 10:42:36;;;;;;;;;;;;;;;23.92;52.25;101478.22;7404828;19;1547;-60
2022/07/19 10:45:15;;;;;;;;;;;;;;;23.90;52.30;101477.50;7404225;19;1333;-60
2022/07/19 10:47:58;;;;;;;;;;;;;;;23.90;52.45;101472.09;7402295;19;1704;-60
2022/07/19 10:50:43;;;;;;;;;;;;;;;23.95;52.29;101463.53;7402591;19;1746;-55
2022/07/19 10:53:12;;;;;;;;;;;;;;;23.94;52.42;101478.06;7401876;19;1846;-60
2022/07/19 10:55:43;;;;;;;;;;;;;;;23.92;52.36;101463.84;7403675;19;1372;-55
2022/07/19 10:58:12;;;;;;;;;;;;;;;23.91;52.57;101468.38;7403680;19;1777;-60
2022/07/19 11:00:44;;;;;;;;;;;;;;;23.94;52.20;101478.91;7402221;19;1626;-55
2022/07/19 11:03:28;;;;;;;;;;;;;;;23.93;52.35;101452.03;7403179;19;1362;-55
2022/07/19 11:05:57;;;;;;;;;;;;;;;23.94;52.52;101454.59;7402737;19;1618;-60
2022/07/19 11:08:33;;;;;;;;;;;;;;;23.96;52.33;101471.50;7403762;19;1311;-60
2022/07/19 11:11:09;;;;;;;;;;;;;;;23.96;52.27;101459.84;7402341;19;1628;-55
2022/07/19 11:13:38;;;;;;;;;;;;;;;23.96;52.65;101449.03;7400122;19;1857;-55
2022/07/19 11:16:07;;;;;;;;;;;;;;;23.94;52.39;101457.28;7404013;19;1532;-55
2022/07/19 11:18:35;;;;;;;;;;;;;;;23.95;52.60;101450.03;7403024;19;1421;-60
2022/07/19 11:21:05;;;;;;;;;;;;;;;23.93;52.40;101441.22;7403069;19;1682;-55
2022/07/19 11:23:34;;;;;;;;;;;;;;;23.95;52.39;101436.53;7404086;19;1294;-54
2022/07/19 11:26:17;;;;;;;;;;;;;;;23.96;52.53;101438.25;7403298;19;1532;-60
2022/07/19 11:28:46;;;;;;;;;;;;;;;23.94;52.46;101432.97;7403581;19;1568;-55
2022/07/19 11:31:15;;;;;;;;;;;;;;;23.98;52.64;101434.38;7401640;19;1680;-60
2022/07/19 11:33:44;;;;;;;;;;;;;;;23.92;52.67;101415.22;7400876;19;1889;-56
2022/07/19 11:36:15;;;;;;;;;;;;;;;23.96;52.79;101436.38;7403430;19;1616;-55
2022/07/19 11:38:44;;;;;;;;;;;;;;;23.93;52.82;101411.50;7404108;19;1007;-59
2022/07/19 11:41:20;;;;;;;;;;;;;;;23.96;52.49;101416.63;7402958;19;1256;-60
2022/07/19 11:43:54;;;;;;;;;;;;;;;23.94;52.72;101414.06;7402422;19;1789;-54
2022/07/19 11:46:23;;;;;;;;;;;;;;;24.04;52.73;101424.81;7403410;19;1275;-55
2022/07/19 11:48:52;;;;;;;;;;;;;;;23.97;52.83;101408.38;7410048;19;1623;-59
2022/07/19 11:51:20;;;;;;;;;;;;;;;23.97;52.54;101412.91;7409076;19;1282;-60
2022/07/19 11:53:53;;;;;;;;;;;;;;;23.96;52.72;101397.72;7406439;19;1862;-56
2022/07/19 11:56:25;;;;;;;;;;;;;;;23.97;52.65;101412.91;7408088;19;1555;-60
2022/07/19 11:58:54;;;;;;;;;;;;;;;24.00;52.90;101416.16;7409219;19;1367;-55
2022/07/19 12:01:27;;;;;;;;;;;;;;;24.02;52.85;101416.00;7407505;19;1579;-59
2022/07/19 12:03:56;;;;;;;;;;;;;;;23.98;52.80;101388.44;7409809;19;1604;-60
2022/07/19 12:06:37;;;;;;;;;;;;;;;23.97;52.59;101391.28;7408000;19;1214;-60
2022/07/19 12:09:06;;;;;;;;;;;;;;;23.98;52.80;101388.44;7410275;19;1567;-60
2022/07/19 12:11:40;;;;;;;;;;;;;;;24.00;52.75;101391.00;7409233;19;1543;-55
2022/07/19 12:14:24;;;;;;;;;;;;;;;24.02;52.93;101384.44;7409536;19;1574;-59
2022/07/19 12:16:52;;;;;;;;;;;;;;;24.02;53.08;101383.59;7408470;19;2089;-60
2022/07/19 12:19:21;;;;;;;;;;;;;;;24.02;52.83;101378.19;7408418;19;1540;-60
2022/07/19 12:21:49;;;;;;;;;;;;;;;24.01;52.99;101381.88;7408584;19;1642;-60
2022/07/19 12:24:19;;;;;;;;;;;;;;;24.02;52.82;101367.38;7409706;19;1696;-56
2022/07/19 12:26:58;;;;;;;;;;;;;;;24.01;52.67;101382.75;7407862;19;1793;-60
2022/07/19 12:29:28;;;;;;;;;;;;;;;24.04;52.87;101387.00;7408201;19;1646;-59
2022/07/19 12:31:57;;;;;;;;;;;;;;;24.02;52.82;101380.88;7408342;19;1857;-60
2022/07/19 12:34:26;;;;;;;;;;;;;;;24.00;52.77;101362.13;7409467;19;1542;-60
2022/07/19 12:36:55;;;;;;;;;;;;;;;24.02;53.14;101395.25;7406159;19;1540;-56
2022/07/19 12:39:25;;;;;;;;;;;;;;;23.99;52.90;101362.28;7408369;19;1375;-60
2022/07/19 12:42:03;;;;;;;;;;;;;;;24.04;52.97;101361.84;7407101;19;1458;-60
2022/07/19 12:44:32;;;;;;;;;;;;;;;24.07;53.09;101369.63;7406696;19;1101;-55
2022/07/19 12:47:00;;;;;;;;;;;;;;;24.05;52.80;101350.00;7406864;19;1223;-60
2022/07/19 12:49:43;;;;;;;;;;;;;;;24.04;52.97;101351.03;7406812;19;1301;-55
2022/07/19 12:52:11;;;;;;;;;;;;;;;24.03;52.75;101339.34;7406471;19;1847;-56
2022/07/19 12:54:40;;;;;;;;;;;;;;;24.07;53.14;101346.13;7406256;19;1111;-60
2022/07/19 12:57:10;;;;;;;;;;;;;;;24.03;52.97;101347.44;7407149;19;1300;-60
2022/07/19 12:59:42;;;;;;;;;;;;;;;24.06;52.92;101355.25;7404105;19;1395;-60
2022/07/19 13:02:11;;;;;;;;;;;;;;;24.09;53.02;101363.03;7405646;19;1426;-56
2022/07/19 13:04:41;;;;;;;;;;;;;;;24.06;53.04;101332.81;7406104;19;1347;-60
2022/07/19 13:07:09;;;;;;;;;;;;;;;24.05;53.19;101337.34;7406706;19;1579;-60
2022/07/19 13:09:39;;;;;;;;;;;;;;;24.09;53.24;101348.69;7407128;19;1667;-55
2022/07/19 13:12:08;;;;;;;;;;;;;;;24.05;52.87;101345.44;7406762;19;1847;-60